Time;durP1;ratioP1;P1;durP2;ratioP2;P2;SDS_P1;SDS_P2;PMS_P1;PMS_P2;Temp;Humidity;BMP_temperature;BMP_pressure;BME280_temperature;BME280_humidity;BME280_pressure;Samples;Min_cycle;Max_cycle;Signal;HPM_P1;HPM_P2
2022/06/18 06:18:10;;;;;;;3.13;0.70;;;25.40;82.00;;;;;;5572145;23;20233;-79
2022/06/18 06:20:39;;;;;;;1.02;0.60;;;25.40;82.10;;;;;;4996836;28;20668;-79
2022/06/18 06:23:07;;;;;;;0.70;0.70;;;25.40;82.20;;;;;;4995814;28;20206;-78
2022/06/18 06:25:34;;;;;;;1.38;0.70;;;25.40;83.00;;;;;;4995574;28;20202;-78
2022/06/18 06:28:02;;;;;;;3.75;0.70;;;25.40;82.30;;;;;;4994984;28;20222;-79
2022/06/18 06:30:29;;;;;;;0.73;0.60;;;25.40;82.40;;;;;;4994695;28;20809;-79
2022/06/18 06:32:56;;;;;;;0.93;0.80;;;25.40;82.50;;;;;;4995284;28;20212;-81
2022/06/18 06:35:24;;;;;;;1.10;0.73;;;25.40;82.60;;;;;;4995190;28;20205;-82
2022/06/18 06:37:51;;;;;;;1.50;1.20;;;25.40;82.70;;;;;;4994791;28;20318;-80
2022/06/18 06:40:18;;;;;;;5.15;1.60;;;25.50;82.70;;;;;;4994895;28;20260;-79
2022/06/18 06:42:48;;;;;;;1.67;1.30;;;25.40;82.30;;;;;;4994445;28;20208;-81
2022/06/18 06:45:18;;;;;;;2.10;1.52;;;25.40;82.10;;;;;;4994678;28;20662;-80
2022/06/18 06:47:45;;;;;;;1.70;1.60;;;25.40;81.80;;;;;;4994689;28;20313;-80
2022/06/18 06:50:13;;;;;;;1.60;1.60;;;25.40;81.50;;;;;;4995856;28;20204;-79
2022/06/18 06:52:42;;;;;;;9.75;1.65;;;25.40;81.20;;;;;;4995170;28;20210;-80
2022/06/18 06:58:00;;;;;;;2.00;1.77;;;25.30;80.20;;;;;;4994929;28;20600;-80
2022/06/18 07:00:26;;;;;;;4.07;1.55;;;25.30;79.80;;;;;;4995346;28;20297;-79
2022/06/18 07:02:54;;;;;;;1.63;1.52;;;25.20;79.20;;;;;;4994566;28;20212;-79
2022/06/18 07:05:20;;;;;;;1.50;1.50;;;25.20;79.20;;;;;;4994503;28;20665;-80
2022/06/18 07:07:49;;;;;;;7.93;1.83;;;25.20;78.50;;;;;;4994271;28;20289;-79
2022/06/18 07:10:16;;;;;;;4.68;1.70;;;25.20;78.00;;;;;;4994154;28;20212;-81
2022/06/18 07:12:44;;;;;;;4.38;1.73;;;25.20;77.60;;;;;;4994951;28;20276;-82
2022/06/18 07:15:12;;;;;;;6.35;2.17;;;25.20;77.10;;;;;;4994396;28;20669;-82
2022/06/18 07:17:40;;;;;;;2.13;2.00;;;25.20;76.70;;;;;;4997404;28;20313;-80
2022/06/18 07:20:10;;;;;;;3.78;1.67;;;25.20;76.30;;;;;;4994576;28;20643;-83
2022/06/18 07:22:37;;;;;;;10.00;2.60;;;25.20;75.90;;;;;;4995432;28;20194;-81
2022/06/18 07:25:08;;;;;;;12.32;2.63;;;25.20;75.50;;;;;;4995352;28;20197;-82
2022/06/18 07:27:35;;;;;;;5.72;2.47;;;25.30;75.30;;;;;;4994372;28;20241;-82
2022/06/18 07:30:01;;;;;;;17.50;2.70;;;25.30;75.80;;;;;;4994242;28;20428;-81
2022/06/18 07:32:28;;;;;;;24.92;3.33;;;25.40;74.50;;;;;;4993982;28;20453;-78
2022/06/18 07:34:55;;;;;;;9.57;2.28;;;25.40;73.40;;;;;;4995317;28;20293;-78
2022/06/18 15:03:46;;;;;;;;;;;25.80;44.20;;;;;;5264627;23;20344;-82
2022/06/18 15:06:13;;;;;;;;;;;25.80;44.30;;;;;;5000934;28;19921;-81
2022/06/18 15:08:41;;;;;;;;;;;25.80;44.30;;;;;;4999950;28;19922;-79
2022/06/18 15:11:09;;;;;;;;;;;25.90;44.40;;;;;;5000300;28;20365;-79
2022/06/18 15:13:36;;;;;;;;;;;25.90;44.40;;;;;;4999085;28;20336;-79
2022/06/18 15:16:16;;;;;;;;;;;25.90;44.40;;;;;;5000166;28;19968;-82
2022/06/18 15:18:54;;;;;;;;;;;25.90;44.40;;;;;;5001326;28;19928;-78
2022/06/18 15:21:30;;;;;;;;;;;25.90;44.30;;;;;;4998947;28;20288;-77
2022/06/18 15:24:02;;;;;;;;;;;25.90;44.20;;;;;;4999010;28;20004;-77
2022/06/18 15:26:31;;;;;;;;;;;25.90;44.20;;;;;;4998273;28;19925;-78
2022/06/18 15:29:03;;;;;;;;;;;25.90;44.20;;;;;;4998647;28;19977;-78
2022/06/18 15:31:32;;;;;;;;;;;25.90;44.10;;;;;;4999489;28;19929;-78
2022/06/18 15:34:01;;;;;;;;;;;25.90;44.00;;;;;;4999821;28;20021;-78
2022/06/18 15:36:29;;;;;;;;;;;25.90;44.00;;;;;;4999590;28;19922;-78
2022/06/18 15:39:00;;;;;;;;;;;25.90;44.00;;;;;;4999152;28;20266;-79
2022/06/18 15:41:33;;;;;;;;;;;25.90;43.90;;;;;;4998898;28;19968;-78
2022/06/18 15:44:00;;;;;;;;;;;25.90;43.90;;;;;;4998205;28;19928;-78
2022/06/18 15:46:28;;;;;;;;;;;25.90;43.90;;;;;;4997575;28;20389;-78
2022/06/18 15:49:01;;;;;;;;;;;25.90;43.80;;;;;;4998060;28;19961;-78
2022/06/18 15:51:31;;;;;;;;;;;25.90;43.80;;;;;;4998382;28;19972;-78
2022/06/18 15:53:59;;;;;;;;;;;25.90;43.80;;;;;;4997636;28;19964;-78
2022/06/18 15:56:27;;;;;;;;;;;25.90;43.80;;;;;;4998227;28;19921;-78
2022/06/18 15:58:54;;;;;;;;;;;25.90;43.70;;;;;;4998230;28;19926;-78
2022/06/18 16:01:21;;;;;;;;;;;25.90;43.70;;;;;;4999194;28;20395;-78
2022/06/18 16:03:49;;;;;;;;;;;25.90;43.70;;;;;;4999517;28;19929;-79
2022/06/18 16:06:16;;;;;;;;;;;25.90;43.60;;;;;;4999264;28;20020;-79
2022/06/18 16:08:45;;;;;;;;;;;25.90;43.60;;;;;;4998762;28;19968;-79
2022/06/18 16:11:16;;;;;;;;;;;25.90;43.60;;;;;;4999224;28;19928;-79
2022/06/18 16:13:43;;;;;;;;;;;25.90;43.50;;;;;;4998843;28;19928;-79
2022/06/18 16:16:19;;;;;;;;;;;25.90;43.50;;;;;;4998623;28;20349;-78
2022/06/18 16:18:48;;;;;;;;;;;25.90;43.50;;;;;;4998709;28;20399;-78
2022/06/18 16:21:14;;;;;;;;;;;25.90;43.40;;;;;;4998383;28;19921;-78
2022/06/18 16:23:47;;;;;;;;;;;25.90;43.40;;;;;;4998211;28;19928;-79
2022/06/18 16:26:16;;;;;;;;;;;25.90;43.30;;;;;;4997290;28;19922;-77
2022/06/18 16:28:43;;;;;;;;;;;25.90;43.20;;;;;;5001505;28;19922;-77
2022/06/18 16:31:12;;;;;;;;;;;25.90;43.20;;;;;;5002219;28;20381;-77
2022/06/18 16:33:40;;;;;;;;;;;25.90;43.20;;;;;;5001824;28;19921;-77
2022/06/18 16:36:13;;;;;;;;;;;25.90;43.20;;;;;;5001982;28;19922;-76
2022/06/18 16:38:41;;;;;;;;;;;25.90;43.20;;;;;;5002570;28;19921;-76
2022/06/18 16:41:25;;;;;;;;;;;25.90;43.20;;;;;;5003211;28;19922;-76
2022/06/18 16:44:12;;;;;;;;;;;25.90;43.20;;;;;;5002452;28;20016;-75
2022/06/18 16:46:39;;;;;;;;;;;26.00;43.40;;;;;;5003137;28;20345;-76
2022/06/18 16:49:11;;;;;;;;;;;25.90;43.40;;;;;;5003077;28;19922;-76
2022/06/18 16:51:39;;;;;;;;;;;26.00;43.50;;;;;;5003964;28;19965;-74
2022/06/18 16:54:17;;;;;;;;;;;26.00;43.50;;;;;;5000393;28;19921;-76
2022/06/18 16:56:46;;;;;;;;;;;26.00;43.60;;;;;;5003575;28;19921;-78
2022/06/18 16:59:13;;;;;;;;;;;26.00;43.60;;;;;;5004255;28;19928;-79
2022/06/18 17:01:40;;;;;;;;;;;26.00;43.70;;;;;;5004760;28;19987;-79
2022/06/18 17:04:07;;;;;;;;;;;26.00;43.80;;;;;;5004012;28;20383;-78
2022/06/18 17:06:34;;;;;;;;;;;26.00;43.80;;;;;;4997953;28;20456;-78
2022/06/18 17:09:01;;;;;;;;;;;26.00;43.90;;;;;;4997318;28;20288;-79
2022/06/18 17:11:28;;;;;;;;;;;26.00;44.00;;;;;;4997410;28;19953;-79
2022/06/18 17:13:56;;;;;;;;;;;26.00;44.10;;;;;;4999684;28;19928;-80
2022/06/18 17:16:23;;;;;;;;;;;26.00;44.10;;;;;;5001127;28;20086;-80
2022/06/18 17:18:49;;;;;;;;;;;26.00;44.10;;;;;;5000895;28;19964;-80
2022/06/18 17:21:16;;;;;;;;;;;26.00;44.10;;;;;;4997973;28;19968;-79
2022/06/18 17:31:07;;;;;;;;;;;26.00;44.10;;;;;;4997781;28;19933;-78
2022/06/18 17:32:07;;;;;;;;;;;25.90;43.80;;;;;;4997963;28;19968;-78
2022/06/18 17:34:34;;;;;;;;;;;25.90;43.80;;;;;;4996860;28;19922;-83
2022/06/18 17:37:01;;;;;;;;;;;25.90;43.70;;;;;;4997170;28;19937;-80
2022/06/18 17:39:28;;;;;;;;;;;25.90;43.70;;;;;;4997056;28;19922;-80
2022/06/18 17:41:54;;;;;;;;;;;25.90;43.70;;;;;;4997179;28;20295;-80
2022/06/18 17:44:22;;;;;;;;;;;25.90;43.60;;;;;;4996634;28;20296;-81
2022/06/18 17:46:49;;;;;;;;;;;25.90;43.60;;;;;;4996448;28;20016;-81
2022/06/18 17:49:15;;;;;;;;;;;25.90;43.60;;;;;;4996606;28;19928;-81
2022/06/18 17:51:42;;;;;;;;;;;25.90;43.60;;;;;;4996360;28;20024;-81
2022/06/18 17:54:10;;;;;;;;;;;25.90;43.60;;;;;;4996631;28;19922;-81
2022/06/18 17:56:38;;;;;;;;;;;25.90;43.60;;;;;;4997397;28;20292;-81
2022/06/18 17:59:07;;;;;;;;;;;25.90;43.60;;;;;;4997277;28;19925;-81
2022/06/18 18:01:36;;;;;;;;;;;25.90;43.70;;;;;;4996386;28;19948;-80
2022/06/18 18:04:05;;;;;;;;;;;25.90;43.70;;;;;;4996087;28;20009;-80
2022/06/18 18:06:31;;;;;;;;;;;25.90;43.80;;;;;;4995830;28;20374;-81
2022/06/18 18:08:58;;;;;;;;;;;25.90;43.80;;;;;;4995595;28;20369;-80
2022/06/18 18:11:42;;;;;;;;;;;25.90;43.90;;;;;;4996020;28;20321;-82
2022/06/18 18:14:09;;;;;;;;;;;25.90;44.00;;;;;;4995941;28;19929;-80
2022/06/18 18:16:37;;;;;;;;;;;25.90;44.10;;;;;;4995574;28;19922;-80
2022/06/18 18:19:04;;;;;;;;;;;25.90;44.10;;;;;;4995615;28;19969;-80
2022/06/18 18:21:30;;;;;;;;;;;25.90;44.20;;;;;;4995489;28;19928;-80
2022/06/18 18:23:57;;;;;;;;;;;25.90;44.30;;;;;;4995241;28;19929;-81
2022/06/18 18:26:24;;;;;;;;;;;25.90;44.30;;;;;;4995521;28;19925;-80
2022/06/18 18:28:50;;;;;;;;;;;25.90;44.40;;;;;;4995183;28;19928;-80
2022/06/18 18:31:20;;;;;;;;;;;25.90;44.50;;;;;;4994783;28;19928;-80
2022/06/18 18:33:48;;;;;;;;;;;25.90;44.60;;;;;;4995256;28;19922;-80
2022/06/18 18:36:15;;;;;;;;;;;25.90;44.60;;;;;;4995082;28;19921;-80
2022/06/18 18:38:41;;;;;;;;;;;25.90;44.70;;;;;;4995210;28;19922;-80
2022/06/18 18:41:08;;;;;;;;;;;25.90;44.80;;;;;;4995026;28;20016;-80
2022/06/18 18:43:35;;;;;;;;;;;25.90;45.00;;;;;;4994619;28;20391;-80
2022/06/18 18:46:02;;;;;;;;;;;25.90;45.00;;;;;;4995073;28;19928;-80
2022/06/18 18:48:28;;;;;;;;;;;25.90;45.10;;;;;;4994643;28;19922;-80
2022/06/18 18:50:56;;;;;;;;;;;25.80;45.10;;;;;;4994977;28;19928;-80
2022/06/18 18:53:23;;;;;;;;;;;25.80;45.20;;;;;;4994602;28;19948;-80
2022/06/18 18:55:50;;;;;;;;;;;25.80;45.30;;;;;;4994597;28;20352;-80
2022/06/18 18:58:16;;;;;;;;;;;25.80;45.40;;;;;;4994423;28;20008;-80
2022/06/18 19:00:43;;;;;;;;;;;25.80;45.50;;;;;;4994694;28;19925;-80
2022/06/18 19:03:12;;;;;;;;;;;25.80;45.60;;;;;;4994667;28;19922;-79
2022/06/18 19:05:38;;;;;;;;;;;25.80;45.70;;;;;;4994949;28;19929;-80
2022/06/18 19:08:06;;;;;;;;;;;25.80;45.90;;;;;;4995004;28;20304;-80
2022/06/18 19:10:35;;;;;;;;;;;25.80;46.00;;;;;;4994910;28;19925;-80
2022/06/18 19:13:05;;;;;;;;;;;25.80;46.20;;;;;;4996134;28;19922;-80
2022/06/18 19:15:34;;;;;;;;;;;25.80;46.30;;;;;;4994912;28;19918;-81
2022/06/18 19:18:01;;;;;;;;;;;25.80;46.40;;;;;;4994714;28;20445;-82
2022/06/18 19:20:28;;;;;;;;;;;25.80;46.60;;;;;;4994741;28;20285;-82
2022/06/18 19:22:55;;;;;;;;;;;25.80;46.80;;;;;;4994673;28;19928;-82
2022/06/18 19:25:23;;;;;;;;;;;25.80;46.80;;;;;;4994821;28;20017;-82
2022/06/18 19:27:50;;;;;;;;;;;25.80;46.80;;;;;;4994440;28;20393;-82
2022/06/18 19:30:20;;;;;;;;;;;25.70;46.70;;;;;;4994819;28;20017;-82
2022/06/18 19:32:47;;;;;;;;;;;25.80;46.80;;;;;;4994728;28;20021;-82
2022/06/18 19:35:14;;;;;;;;;;;25.80;47.00;;;;;;4994628;28;19988;-82
2022/06/18 19:37:41;;;;;;;;;;;25.70;47.10;;;;;;4994422;28;19928;-82
2022/06/18 19:40:13;;;;;;;;;;;25.70;47.30;;;;;;4994396;28;19922;-82
2022/06/18 19:42:41;;;;;;;;;;;25.70;47.40;;;;;;4996093;28;20016;-81
2022/06/18 19:45:08;;;;;;;;;;;25.70;47.60;;;;;;4997836;28;20020;-82
2022/06/18 19:47:35;;;;;;;;;;;25.70;47.70;;;;;;4998279;28;20009;-80
2022/06/18 19:50:02;;;;;;;;;;;25.70;47.80;;;;;;4998285;28;19928;-81
2022/06/18 19:52:28;;;;;;;;;;;25.70;48.00;;;;;;4998582;28;19934;-81
2022/06/18 19:54:55;;;;;;;;;;;25.70;48.10;;;;;;4998546;28;19921;-81
2022/06/18 19:57:22;;;;;;;;;;;25.70;48.20;;;;;;4999991;28;19921;-81
2022/06/18 19:59:51;;;;;;;;;;;25.70;48.40;;;;;;4999562;28;20012;-80
2022/06/18 20:02:20;;;;;;;;;;;25.70;48.50;;;;;;4998875;28;19928;-82
2022/06/18 20:04:47;;;;;;;;;;;25.70;48.60;;;;;;4998523;28;19921;-79
2022/06/18 20:07:15;;;;;;;;;;;25.70;48.80;;;;;;4998147;28;19931;-81
2022/06/18 20:09:42;;;;;;;;;;;25.70;48.90;;;;;;4997884;28;20365;-79
2022/06/18 20:12:09;;;;;;;;;;;25.70;49.10;;;;;;4997916;28;19922;-78
2022/06/18 20:14:35;;;;;;;;;;;25.70;49.30;;;;;;4997451;28;19933;-78
2022/06/18 20:17:03;;;;;;;;;;;25.70;49.40;;;;;;4997387;28;19928;-79
2022/06/18 20:19:30;;;;;;;;;;;25.70;49.60;;;;;;4997553;28;19921;-79
2022/06/18 20:21:57;;;;;;;;;;;25.70;49.80;;;;;;4997693;28;20292;-78
2022/06/18 20:24:24;;;;;;;;;;;25.70;50.00;;;;;;4997387;28;20399;-79
2022/06/18 20:26:50;;;;;;;;;;;25.70;50.10;;;;;;4998328;28;20008;-79
2022/06/18 20:29:17;;;;;;;;;;;25.70;50.30;;;;;;4997858;28;19928;-79
2022/06/18 20:31:44;;;;;;;;;;;25.70;50.50;;;;;;4997763;28;19932;-80
2022/06/18 20:34:12;;;;;;;;;;;25.70;50.70;;;;;;4997906;28;20015;-79
2022/06/18 20:36:39;;;;;;;;;;;25.70;50.90;;;;;;4999355;28;19921;-80
2022/06/18 20:39:06;;;;;;;;;;;25.70;51.10;;;;;;4999940;28;20036;-80
2022/06/18 20:41:33;;;;;;;;;;;25.70;51.40;;;;;;4999722;28;19921;-79
2022/06/18 20:44:00;;;;;;;;;;;25.70;51.60;;;;;;4999869;28;20360;-80
2022/06/18 20:46:28;;;;;;;;;;;25.70;51.60;;;;;;4999409;28;19964;-80
2022/06/18 20:48:56;;;;;;;;;;;25.70;51.60;;;;;;4999521;28;19926;-80
2022/06/18 20:51:25;;;;;;;;;;;25.70;51.70;;;;;;5005630;28;19945;-80
2022/06/18 20:53:53;;;;;;;;;;;25.70;52.10;;;;;;5007514;28;20008;-79
2022/06/18 20:59:04;;;;;;;;;;;25.70;52.50;;;;;;5006115;28;19953;-79
2022/06/18 21:01:31;;;;;;;;;;;25.70;52.80;;;;;;5004395;28;19981;-79
2022/06/18 21:03:57;;;;;;;;;;;25.70;53.00;;;;;;5001861;28;20321;-79
2022/06/18 21:06:26;;;;;;;;;;;25.70;53.20;;;;;;5005851;28;19922;-79
2022/06/18 21:08:53;;;;;;;;;;;25.70;53.40;;;;;;5011450;28;19922;-79
2022/06/18 21:11:20;;;;;;;;;;;25.70;53.60;;;;;;5003378;28;19928;-79
2022/06/18 21:13:46;;;;;;;;;;;25.70;53.80;;;;;;5000326;28;19992;-79
2022/06/18 21:16:15;;;;;;;;;;;25.70;54.00;;;;;;5003198;28;19928;-80
2022/06/18 21:18:42;;;;;;;;;;;25.70;54.30;;;;;;5003136;28;20389;-79
2022/06/18 21:21:10;;;;;;;;;;;25.70;54.50;;;;;;5001691;28;20429;-79
2022/06/18 21:23:39;;;;;;;;;;;25.70;54.70;;;;;;5002403;28;20285;-79
2022/06/18 21:26:06;;;;;;;;;;;25.70;54.90;;;;;;5001346;28;20008;-81
2022/06/18 21:28:33;;;;;;;;;;;25.70;55.20;;;;;;5000999;28;19922;-80
2022/06/18 21:31:00;;;;;;;;;;;25.70;55.40;;;;;;5000380;28;19921;-80
2022/06/18 21:38:56;;;;;;;;;;;25.70;56.40;;;;;;4996054;28;19928;-75
2022/06/18 21:41:23;;;;;;;;;;;25.70;56.50;;;;;;4996782;28;19922;-75
2022/06/18 21:43:50;;;;;;;;;;;25.70;56.40;;;;;;4997037;28;20064;-75
2022/06/18 21:46:16;;;;;;;;;;;25.70;56.70;;;;;;4995761;28;20373;-75
2022/06/18 21:48:43;;;;;;;;;;;25.80;57.10;;;;;;4995553;28;19921;-76
2022/06/18 21:51:10;;;;;;;;;;;25.80;57.30;;;;;;4995721;28;19944;-76
2022/06/18 21:53:38;;;;;;;;;;;25.70;57.50;;;;;;4995169;28;19983;-76
2022/06/18 21:56:08;;;;;;;;;;;25.80;57.80;;;;;;4995587;28;19928;-76
2022/06/18 21:58:36;;;;;;;;;;;25.80;58.10;;;;;;4995214;28;20428;-76
2022/06/18 22:01:03;;;;;;;;;;;25.80;58.30;;;;;;4994987;28;19922;-76
2022/06/18 22:03:30;;;;;;;;;;;25.70;58.40;;;;;;4994827;28;19928;-76
2022/06/18 22:05:57;;;;;;;;;;;25.70;58.70;;;;;;4994906;28;19922;-76
2022/06/18 22:08:24;;;;;;;;;;;25.80;59.00;;;;;;4995296;28;19922;-76
2022/06/18 22:10:50;;;;;;;;;;;25.70;59.10;;;;;;4995353;28;19928;-76
2022/06/18 22:18:47;;;;;;;;;;;25.70;59.90;;;;;;4995094;28;19955;-76
2022/06/18 22:21:13;;;;;;;;;;;25.70;60.20;;;;;;4994954;28;19928;-76
2022/06/18 22:23:41;;;;;;;;;;;25.70;60.50;;;;;;4994934;28;20008;-76
2022/06/18 22:26:08;;;;;;;;;;;25.70;60.90;;;;;;4995169;28;19965;-76
2022/06/18 22:28:36;;;;;;;;;;;25.70;61.30;;;;;;4994912;28;20289;-76
2022/06/18 22:31:04;;;;;;;;;;;25.70;61.50;;;;;;4995223;28;19927;-76
2022/06/18 22:33:31;;;;;;;;;;;25.70;61.50;;;;;;4995077;28;19922;-76
2022/06/18 22:35:58;;;;;;;;;;;25.70;61.50;;;;;;4994953;28;19928;-76
2022/06/18 22:38:24;;;;;;;;;;;25.70;61.90;;;;;;4995023;28;19921;-75
2022/06/18 22:40:51;;;;;;;;;;;25.70;62.30;;;;;;4994658;28;19922;-76
2022/06/18 22:43:19;;;;;;;;;;;25.70;62.80;;;;;;4994662;28;19928;-76
2022/06/18 22:45:49;;;;;;;;;;;25.70;63.10;;;;;;4994807;28;19929;-75
2022/06/18 22:48:16;;;;;;;;;;;25.70;63.40;;;;;;4994623;28;19932;-76
2022/06/18 22:50:43;;;;;;;;;;;25.70;63.70;;;;;;4995552;28;19922;-76
2022/06/18 22:53:31;;;;;;;;;;;25.70;64.00;;;;;;4994650;28;19921;-76
2022/06/18 22:55:59;;;;;;;;;;;25.70;64.30;;;;;;4994371;28;19926;-76
2022/06/18 22:58:25;;;;;;;;;;;25.70;64.60;;;;;;4994679;28;19926;-76
2022/06/18 23:00:53;;;;;;;;;;;25.70;65.00;;;;;;4994592;28;19928;-76
2022/06/18 23:03:20;;;;;;;;;;;25.70;65.20;;;;;;4994372;28;19922;-76
2022/06/18 23:05:47;;;;;;;;;;;25.70;65.40;;;;;;4994504;28;20427;-76
2022/06/18 23:08:14;;;;;;;;;;;25.70;65.80;;;;;;4994333;28;20404;-76
2022/06/18 23:10:42;;;;;;;;;;;25.70;66.00;;;;;;4994471;28;19922;-76
2022/06/18 23:13:09;;;;;;;;;;;25.70;66.30;;;;;;4994458;28;19921;-76
2022/06/18 23:15:37;;;;;;;;;;;25.70;66.50;;;;;;4994593;28;20403;-76
2022/06/18 23:18:06;;;;;;;;;;;25.70;66.70;;;;;;4996482;28;19922;-76
2022/06/18 23:20:33;;;;;;;;;;;25.70;66.90;;;;;;4998231;28;20389;-76
2022/06/18 23:23:00;;;;;;;;;;;25.70;67.20;;;;;;4998318;28;19980;-76
2022/06/18 23:25:27;;;;;;;;;;;25.70;68.40;;;;;;4998038;28;19928;-76
2022/06/18 23:27:53;;;;;;;;;;;25.70;67.70;;;;;;4998043;28;19928;-76
2022/06/18 23:30:20;;;;;;;;;;;25.70;67.70;;;;;;4997912;28;20008;-76
2022/06/18 23:32:48;;;;;;;;;;;25.70;67.70;;;;;;4998055;28;19922;-77
2022/06/18 23:35:17;;;;;;;;;;;25.70;67.90;;;;;;4998117;28;20012;-77
2022/06/18 23:37:46;;;;;;;;;;;25.70;68.00;;;;;;4998166;28;19928;-77
2022/06/18 23:40:15;;;;;;;;;;;25.70;68.30;;;;;;4997697;28;20381;-77
2022/06/18 23:42:43;;;;;;;;;;;25.70;68.50;;;;;;4997420;28;20293;-77
2022/06/18 23:45:10;;;;;;;;;;;25.70;68.60;;;;;;4997695;28;19928;-76
2022/06/18 23:47:37;;;;;;;;;;;25.70;68.80;;;;;;4997914;28;19937;-76
2022/06/18 23:50:04;;;;;;;;;;;25.70;69.00;;;;;;4997877;28;19921;-76
2022/06/18 23:52:32;;;;;;;;;;;25.70;69.10;;;;;;4997895;28;19928;-76
2022/06/18 23:54:58;;;;;;;;;;;25.60;69.20;;;;;;4997770;28;19928;-76
2022/06/18 23:57:27;;;;;;;;;;;25.70;69.40;;;;;;4997686;28;19928;-76
2022/06/18 23:59:56;;;;;;;;;;;25.60;69.40;;;;;;4997616;28;19928;-76
